createdAt,value
2022-11-28T00:00:08.102Z,7.20
2022-11-28T00:00:17.503Z,7.10
2022-11-28T00:00:26.915Z,7.10
2022-11-28T00:00:36.347Z,7.10
2022-11-28T00:00:45.757Z,7.10
2022-11-28T00:00:55.189Z,7.00
2022-11-28T00:01:04.614Z,7.00
2022-11-28T00:01:14.050Z,7.00
2022-11-28T00:01:23.448Z,7.00
2022-11-28T00:01:32.840Z,6.90
2022-11-28T00:01:42.244Z,6.90
2022-11-28T00:02:01.126Z,6.90
2022-11-28T00:02:10.601Z,6.80
2022-11-28T00:02:20.100Z,6.80
2022-11-28T00:02:29.426Z,6.80
2022-11-28T00:02:38.814Z,6.70
2022-11-28T00:02:48.240Z,6.70
2022-11-28T00:02:57.776Z,6.70
2022-11-28T00:03:07.134Z,6.60
2022-11-28T00:03:16.537Z,6.60
2022-11-28T00:03:25.913Z,6.60
2022-11-28T00:03:35.309Z,6.60
2022-11-28T00:03:44.698Z,6.60
2022-11-28T00:03:54.101Z,6.50
2022-11-28T00:04:03.518Z,6.50
2022-11-28T00:04:12.918Z,6.40
2022-11-28T00:04:22.322Z,6.40
2022-11-28T00:04:41.472Z,6.40
2022-11-28T00:04:50.648Z,6.40
2022-11-28T00:05:00.053Z,6.30
2022-11-28T00:05:09.497Z,6.30
2022-11-28T00:05:18.944Z,6.30
2022-11-28T00:05:28.366Z,6.30
2022-11-28T00:05:39.945Z,6.30
2022-11-28T00:05:47.236Z,6.20
2022-11-28T00:05:56.626Z,6.20
2022-11-28T00:06:06.068Z,6.20
2022-11-28T00:06:15.487Z,6.20
2022-11-28T00:06:24.884Z,6.20
2022-11-28T00:06:34.316Z,6.10
2022-11-28T00:06:43.757Z,6.10
2022-11-28T00:06:53.147Z,6.10
2022-11-28T00:07:02.567Z,6.10
2022-11-28T00:07:12.092Z,6.10
2022-11-28T00:07:30.910Z,6.10
2022-11-28T00:07:40.392Z,6.00
2022-11-28T00:07:49.830Z,6.00
2022-11-28T00:07:59.213Z,6.00
2022-11-28T00:08:08.590Z,6.00
2022-11-28T00:08:18.127Z,6.00
2022-11-28T00:08:27.412Z,5.90
2022-11-28T00:08:36.838Z,5.90
2022-11-28T00:08:46.271Z,5.90
2022-11-28T00:08:55.680Z,5.90
2022-11-28T00:09:05.098Z,5.90
2022-11-28T00:09:14.519Z,5.90
2022-11-28T00:09:23.951Z,5.90
2022-11-28T00:09:33.372Z,5.90
2022-11-28T00:09:42.796Z,5.90
2022-11-28T00:09:53.341Z,5.80
2022-11-28T00:10:03.649Z,5.80
2022-11-28T00:10:13.137Z,5.80
2022-11-28T00:10:22.597Z,5.80
2022-11-28T00:10:32.011Z,5.80
2022-11-28T00:10:50.964Z,5.80
2022-11-28T00:11:00.381Z,5.80
2022-11-28T00:11:09.807Z,5.80
2022-11-28T00:11:19.285Z,5.80
2022-11-28T00:11:28.682Z,5.80
2022-11-28T00:11:38.082Z,5.80
2022-11-28T00:11:47.518Z,5.80
2022-11-28T00:11:56.939Z,5.80
2022-11-28T00:12:06.428Z,5.80
2022-11-28T00:12:15.851Z,5.80
2022-11-28T00:12:25.270Z,5.80
2022-11-28T00:12:34.679Z,5.80
2022-11-28T00:12:44.131Z,5.80
2022-11-28T00:12:53.571Z,5.80
2022-11-28T00:13:02.976Z,5.70
2022-11-28T00:13:12.371Z,5.70
2022-11-28T00:13:31.215Z,5.70
2022-11-28T00:13:40.621Z,5.70
2022-11-28T00:13:50.050Z,5.70
2022-11-28T00:13:59.477Z,5.70
2022-11-28T00:14:08.915Z,5.70
2022-11-28T00:14:18.373Z,5.70
2022-11-28T00:14:27.776Z,5.70
2022-11-28T00:14:37.183Z,5.70
2022-11-28T00:14:46.628Z,5.70
2022-11-28T00:14:56.103Z,5.70
2022-11-28T00:15:05.523Z,5.70
2022-11-28T00:15:14.948Z,5.70
2022-11-28T00:15:24.358Z,5.70
2022-11-28T00:15:33.846Z,5.70
2022-11-28T00:15:43.263Z,5.60
2022-11-28T00:15:52.639Z,5.60
2022-11-28T00:16:02.112Z,5.60
2022-11-28T00:16:20.843Z,5.60
2022-11-28T00:16:30.321Z,5.60
2022-11-28T00:16:39.640Z,5.60
2022-11-28T00:16:49.058Z,5.60
2022-11-28T00:16:58.468Z,5.60
2022-11-28T00:17:07.895Z,5.60
2022-11-28T00:17:17.281Z,5.60
2022-11-28T00:17:26.706Z,5.60
2022-11-28T00:17:36.118Z,5.60
2022-11-28T00:17:45.543Z,5.60
2022-11-28T00:17:55.332Z,5.60
2022-11-28T00:18:04.791Z,5.60
2022-11-28T00:18:14.287Z,5.60
2022-11-28T00:18:23.696Z,5.60
2022-11-28T00:18:33.379Z,5.60
2022-11-28T00:18:42.785Z,5.60
2022-11-28T00:18:52.211Z,5.60
2022-11-28T00:19:11.018Z,5.60
2022-11-28T00:19:20.430Z,5.60
2022-11-28T00:19:29.853Z,5.60
2022-11-28T00:19:39.251Z,5.60
2022-11-28T00:19:48.687Z,5.70
2022-11-28T00:19:58.124Z,5.70
2022-11-28T00:20:07.535Z,5.70
2022-11-28T00:20:16.927Z,5.70
2022-11-28T00:20:26.344Z,5.70
2022-11-28T00:20:35.765Z,5.70
2022-11-28T00:20:45.155Z,5.70
2022-11-28T00:20:54.548Z,5.70
2022-11-28T00:21:03.929Z,5.80
2022-11-28T00:21:13.364Z,5.80
2022-11-28T00:21:22.772Z,5.80
2022-11-28T00:21:32.191Z,5.80
2022-11-28T00:21:51.006Z,5.90
2022-11-28T00:22:00.431Z,5.90
2022-11-28T00:22:09.879Z,5.90
2022-11-28T00:22:19.274Z,5.90
2022-11-28T00:22:28.685Z,5.90
2022-11-28T00:22:38.108Z,6.00
2022-11-28T00:22:47.517Z,6.00
2022-11-28T00:22:56.975Z,6.00
2022-11-28T00:23:06.372Z,6.00
2022-11-28T00:23:15.800Z,6.00
2022-11-28T00:23:25.336Z,6.10
2022-11-28T00:23:34.636Z,6.10
2022-11-28T00:23:44.043Z,6.10
2022-11-28T00:23:53.463Z,6.10
2022-11-28T00:24:02.883Z,6.10
2022-11-28T00:24:12.308Z,6.20
2022-11-28T00:24:31.151Z,6.20
2022-11-28T00:24:40.890Z,6.20
2022-11-28T00:24:50.021Z,6.20
2022-11-28T00:24:59.434Z,6.20
2022-11-28T00:25:08.840Z,6.20
2022-11-28T00:25:18.223Z,6.20
2022-11-28T00:25:27.635Z,6.20
2022-11-28T00:25:37.062Z,6.20
2022-11-28T00:25:46.560Z,6.20
2022-11-28T00:25:55.947Z,6.20
2022-11-28T00:26:05.354Z,6.20
2022-11-28T00:26:14.780Z,6.20
2022-11-28T00:26:24.279Z,6.20
2022-11-28T00:26:33.700Z,6.20
2022-11-28T00:26:43.148Z,6.20
2022-11-28T00:26:52.546Z,6.20
2022-11-28T00:27:01.986Z,6.20
2022-11-28T00:27:20.888Z,6.20
2022-11-28T00:27:30.276Z,6.20
2022-11-28T00:27:39.678Z,6.20
2022-11-28T00:27:49.088Z,6.10
2022-11-28T00:27:58.502Z,6.20
2022-11-28T00:28:07.910Z,6.10
2022-11-28T00:28:17.316Z,6.10
2022-11-28T00:28:26.766Z,6.10
2022-11-28T00:28:36.260Z,6.10
2022-11-28T00:28:45.717Z,6.10
2022-11-28T00:28:55.152Z,6.00
2022-11-28T00:29:04.557Z,6.10
2022-11-28T00:29:13.961Z,6.10
2022-11-28T00:29:23.353Z,6.00
2022-11-28T00:29:32.766Z,6.00
2022-11-28T00:29:42.146Z,6.00
2022-11-28T00:30:01.001Z,6.00
2022-11-28T00:30:10.403Z,6.00
2022-11-28T00:30:19.804Z,6.00
2022-11-28T00:30:29.225Z,6.00
2022-11-28T00:30:38.643Z,6.00
2022-11-28T00:30:48.055Z,6.00
2022-11-28T00:30:57.548Z,6.00
2022-11-28T00:31:06.977Z,6.00
2022-11-28T00:31:16.439Z,6.00
2022-11-28T00:31:25.894Z,6.00
2022-11-28T00:31:35.235Z,6.00
2022-11-28T00:31:44.705Z,6.00
2022-11-28T00:31:54.209Z,5.90
2022-11-28T00:32:03.675Z,5.90
2022-11-28T00:32:13.176Z,5.90
2022-11-28T00:32:22.480Z,5.90
2022-11-28T00:32:41.345Z,5.90
2022-11-28T00:32:50.742Z,5.90
2022-11-28T00:33:00.181Z,5.90
2022-11-28T00:33:09.611Z,5.90
2022-11-28T00:33:19.009Z,5.90
2022-11-28T00:33:28.409Z,5.90
2022-11-28T00:33:37.864Z,5.90
2022-11-28T00:33:47.266Z,5.90
2022-11-28T00:33:56.658Z,5.90
2022-11-28T00:34:06.073Z,5.90
2022-11-28T00:34:15.487Z,5.90
2022-11-28T00:34:24.885Z,5.90
2022-11-28T00:34:34.325Z,5.90
2022-11-28T00:34:44.073Z,5.90
2022-11-28T00:34:53.128Z,5.90
2022-11-28T00:35:02.556Z,5.90
2022-11-28T00:35:11.968Z,5.90
2022-11-28T00:35:30.801Z,5.90
2022-11-28T00:35:40.198Z,5.90
2022-11-28T00:35:49.614Z,5.90
2022-11-28T00:35:59.049Z,5.90
2022-11-28T00:36:08.470Z,6.00
2022-11-28T00:36:17.867Z,6.00
2022-11-28T00:36:27.270Z,6.00
2022-11-28T00:36:36.929Z,6.00
2022-11-28T00:36:46.387Z,6.00
2022-11-28T00:36:55.808Z,6.00
2022-11-28T00:37:05.216Z,6.10
2022-11-28T00:37:14.618Z,6.10
2022-11-28T00:37:24.022Z,6.10
2022-11-28T00:37:33.442Z,6.10
2022-11-28T00:37:42.872Z,6.20
2022-11-28T00:37:52.279Z,6.20
2022-11-28T00:38:11.190Z,6.20
2022-11-28T00:38:20.598Z,6.30
2022-11-28T00:38:30.131Z,6.30
2022-11-28T00:38:39.459Z,6.30
2022-11-28T00:38:48.844Z,6.30
2022-11-28T00:38:58.250Z,6.40
2022-11-28T00:39:07.641Z,6.40
2022-11-28T00:39:17.056Z,6.40
2022-11-28T00:39:26.472Z,6.50
2022-11-28T00:39:35.876Z,6.40
2022-11-28T00:39:45.276Z,6.50
2022-11-28T00:39:54.690Z,6.50
2022-11-28T00:40:04.096Z,6.50
2022-11-28T00:40:13.480Z,6.60
2022-11-28T00:40:22.896Z,6.50
2022-11-28T00:40:32.279Z,6.50
2022-11-28T00:40:51.092Z,6.60
2022-11-28T00:41:00.481Z,6.60
2022-11-28T00:41:09.917Z,6.60
2022-11-28T00:41:19.338Z,6.70
2022-11-28T00:41:28.783Z,6.70
2022-11-28T00:41:38.140Z,6.70
2022-11-28T00:41:47.582Z,6.70
2022-11-28T00:41:57.014Z,6.70
2022-11-28T00:42:06.476Z,6.70
2022-11-28T00:42:15.939Z,6.70
2022-11-28T00:42:25.314Z,6.80
2022-11-28T00:42:34.736Z,6.80
2022-11-28T00:42:44.132Z,6.80
2022-11-28T00:42:53.557Z,6.80
2022-11-28T00:43:03.014Z,6.80
2022-11-28T00:43:12.415Z,6.80
2022-11-28T00:43:31.274Z,6.80
2022-11-28T00:43:40.685Z,6.80
2022-11-28T00:43:50.108Z,6.80
2022-11-28T00:43:59.506Z,6.80
2022-11-28T00:44:08.933Z,6.80
2022-11-28T00:44:18.344Z,6.80
2022-11-28T00:44:27.751Z,6.80
2022-11-28T00:44:37.175Z,6.80
2022-11-28T00:44:46.578Z,6.80
2022-11-28T00:44:55.963Z,6.70
2022-11-28T00:45:05.420Z,6.70
2022-11-28T00:45:14.897Z,6.70
2022-11-28T00:45:24.378Z,6.70
2022-11-28T00:45:33.829Z,6.70
2022-11-28T00:45:43.218Z,6.70
2022-11-28T00:45:52.676Z,6.70
2022-11-28T00:46:02.092Z,6.70
2022-11-28T00:46:21.116Z,6.70
2022-11-28T00:46:30.366Z,6.60
2022-11-28T00:46:39.787Z,6.60
2022-11-28T00:46:49.177Z,6.60
2022-11-28T00:46:58.576Z,6.60
2022-11-28T00:47:07.997Z,6.60
2022-11-28T00:47:17.436Z,6.50
2022-11-28T00:47:26.841Z,6.50
2022-11-28T00:47:36.258Z,6.50
2022-11-28T00:47:45.679Z,6.50
2022-11-28T00:47:55.133Z,6.40
2022-11-28T00:48:04.587Z,6.40
2022-11-28T00:48:14.027Z,6.40
2022-11-28T00:48:23.449Z,6.40
2022-11-28T00:48:32.904Z,6.40
2022-11-28T00:48:42.309Z,6.40
2022-11-28T00:49:01.150Z,6.30
2022-11-28T00:49:10.592Z,6.30
2022-11-28T00:49:20.024Z,6.30
2022-11-28T00:49:29.425Z,6.30
2022-11-28T00:49:38.837Z,6.30
2022-11-28T00:49:48.239Z,6.20
2022-11-28T00:49:57.651Z,6.20
2022-11-28T00:50:07.062Z,6.20
2022-11-28T00:50:16.491Z,6.20
2022-11-28T00:50:25.923Z,6.20
2022-11-28T00:50:35.336Z,6.20
2022-11-28T00:50:44.782Z,6.20
2022-11-28T00:50:54.250Z,6.10
2022-11-28T00:51:03.665Z,6.10
2022-11-28T00:51:13.077Z,6.10
2022-11-28T00:51:22.494Z,6.10
2022-11-28T00:51:31.931Z,6.10
2022-11-28T00:51:50.831Z,6.00
2022-11-28T00:52:00.259Z,6.00
2022-11-28T00:52:09.733Z,6.00
2022-11-28T00:52:19.164Z,6.00
2022-11-28T00:52:28.598Z,6.00
2022-11-28T00:52:38.034Z,6.00
2022-11-28T00:52:47.447Z,6.00
2022-11-28T00:52:56.886Z,5.90
2022-11-28T00:53:06.346Z,5.90
2022-11-28T00:53:15.767Z,5.90
2022-11-28T00:53:25.172Z,5.90
2022-11-28T00:53:34.701Z,5.90
2022-11-28T00:53:44.034Z,5.90
2022-11-28T00:53:53.430Z,5.80
2022-11-28T00:54:02.874Z,5.80
2022-11-28T00:54:12.283Z,5.80
2022-11-28T00:54:31.135Z,5.80
2022-11-28T00:54:40.924Z,5.80
2022-11-28T00:54:49.960Z,5.80
2022-11-28T00:54:59.466Z,5.80
2022-11-28T00:55:08.866Z,5.80
2022-11-28T00:55:18.297Z,5.80
2022-11-28T00:55:27.717Z,5.80
2022-11-28T00:55:37.139Z,5.80
2022-11-28T00:55:46.565Z,5.80
2022-11-28T00:55:55.955Z,5.80
2022-11-28T00:56:05.356Z,5.80
2022-11-28T00:56:14.800Z,5.70
2022-11-28T00:56:24.219Z,5.70
2022-11-28T00:56:33.622Z,5.70
2022-11-28T00:56:43.053Z,5.70
2022-11-28T00:56:52.499Z,5.70
2022-11-28T00:57:01.938Z,5.70
2022-11-28T00:57:20.799Z,5.70
2022-11-28T00:57:30.213Z,5.70
2022-11-28T00:57:39.641Z,5.70
2022-11-28T00:57:49.051Z,5.60
2022-11-28T00:57:58.453Z,5.60
2022-11-28T00:58:07.899Z,5.60
2022-11-28T00:58:17.328Z,5.60
2022-11-28T00:58:26.756Z,5.60
2022-11-28T00:58:36.189Z,5.60
2022-11-28T00:58:45.616Z,5.60
2022-11-28T00:58:55.031Z,5.60
2022-11-28T00:59:04.460Z,5.60
2022-11-28T00:59:13.885Z,5.60
2022-11-28T00:59:23.340Z,5.60
2022-11-28T00:59:32.752Z,5.60
2022-11-28T00:59:42.175Z,5.50
2022-11-28T01:00:01.031Z,5.50
2022-11-28T01:00:10.508Z,5.50
2022-11-28T01:00:19.923Z,5.50
2022-11-28T01:00:29.336Z,5.50
2022-11-28T01:00:38.892Z,5.50
2022-11-28T01:00:48.335Z,5.50
2022-11-28T01:00:57.652Z,5.50
2022-11-28T01:01:07.042Z,5.50
2022-11-28T01:01:16.480Z,5.50
2022-11-28T01:01:25.923Z,5.50
2022-11-28T01:01:35.283Z,5.50
2022-11-28T01:01:44.729Z,5.50
2022-11-28T01:01:54.159Z,5.50
2022-11-28T01:02:03.572Z,5.50
2022-11-28T01:02:12.969Z,5.50
2022-11-28T01:02:22.456Z,5.50
2022-11-28T01:02:41.299Z,5.40
2022-11-28T01:02:50.666Z,5.50
2022-11-28T01:03:00.013Z,5.50
2022-11-28T01:03:09.478Z,5.40
2022-11-28T01:03:18.965Z,5.50
2022-11-28T01:03:28.479Z,5.40
2022-11-28T01:03:37.900Z,5.40
2022-11-28T01:03:47.323Z,5.40
2022-11-28T01:03:56.731Z,5.40
2022-11-28T01:04:06.210Z,5.40
2022-11-28T01:04:15.618Z,5.40
2022-11-28T01:04:25.034Z,5.40
2022-11-28T01:04:34.428Z,5.40
2022-11-28T01:04:44.206Z,5.50
2022-11-28T01:04:53.277Z,5.40
2022-11-28T01:05:02.734Z,5.40
2022-11-28T01:05:12.201Z,5.40
2022-11-28T01:05:31.051Z,5.40
2022-11-28T01:05:40.478Z,5.40
2022-11-28T01:05:49.906Z,5.40
2022-11-28T01:05:59.338Z,5.40
2022-11-28T01:06:08.807Z,5.40
2022-11-28T01:06:18.238Z,5.40
2022-11-28T01:06:27.713Z,5.40
2022-11-28T01:06:37.143Z,5.40
2022-11-28T01:06:46.570Z,5.40
2022-11-28T01:06:55.990Z,5.40
2022-11-28T01:07:05.391Z,5.40
2022-11-28T01:07:14.831Z,5.40
2022-11-28T01:07:24.271Z,5.40
2022-11-28T01:07:33.716Z,5.40
2022-11-28T01:07:43.084Z,5.40
2022-11-28T01:07:52.471Z,5.40
2022-11-28T01:08:11.322Z,5.30
2022-11-28T01:08:20.753Z,5.30
2022-11-28T01:08:30.166Z,5.30
2022-11-28T01:08:39.701Z,5.30
2022-11-28T01:08:49.003Z,5.30
2022-11-28T01:08:58.467Z,5.30
2022-11-28T01:09:07.882Z,5.30
2022-11-28T01:09:17.296Z,5.30
2022-11-28T01:09:26.719Z,5.30
2022-11-28T01:09:36.160Z,5.30
2022-11-28T01:09:45.621Z,5.30
2022-11-28T01:09:55.057Z,5.30
2022-11-28T01:10:04.495Z,5.30
2022-11-28T01:10:13.893Z,5.30
2022-11-28T01:10:23.324Z,5.30
2022-11-28T01:10:32.749Z,5.30
2022-11-28T01:10:42.184Z,5.30
2022-11-28T01:11:01.062Z,5.30
2022-11-28T01:11:10.478Z,5.30
2022-11-28T01:11:19.925Z,5.30
2022-11-28T01:11:29.327Z,5.30
2022-11-28T01:11:38.721Z,5.30
2022-11-28T01:11:48.138Z,5.30
2022-11-28T01:11:57.537Z,5.30
2022-11-28T01:12:06.949Z,5.30
2022-11-28T01:12:16.371Z,5.30
2022-11-28T01:12:25.794Z,5.30
2022-11-28T01:12:35.220Z,5.30
2022-11-28T01:12:44.670Z,5.30
2022-11-28T01:12:54.077Z,5.30
2022-11-28T01:13:03.508Z,5.30
2022-11-28T01:13:13.065Z,5.30
2022-11-28T01:13:22.505Z,5.30
2022-11-28T01:13:31.920Z,5.30
2022-11-28T01:13:50.778Z,5.30
2022-11-28T01:14:00.190Z,5.30
2022-11-28T01:14:09.620Z,5.30
2022-11-28T01:14:19.073Z,5.30
2022-11-28T01:14:28.483Z,5.30
2022-11-28T01:14:37.882Z,5.20
2022-11-28T01:14:47.293Z,5.30
2022-11-28T01:14:56.765Z,5.30
2022-11-28T01:15:06.170Z,5.30
2022-11-28T01:15:15.591Z,5.30
2022-11-28T01:15:25.012Z,5.30
2022-11-28T01:15:34.445Z,5.30
2022-11-28T01:15:43.869Z,5.30
2022-11-28T01:15:53.351Z,5.30
2022-11-28T01:16:02.822Z,5.30
2022-11-28T01:16:12.195Z,5.30
2022-11-28T01:16:31.087Z,5.30
2022-11-28T01:16:40.501Z,5.30
2022-11-28T01:16:49.966Z,5.30
2022-11-28T01:16:59.269Z,5.30
2022-11-28T01:17:08.713Z,5.30
2022-11-28T01:17:18.184Z,5.30
2022-11-28T01:17:27.623Z,5.30
2022-11-28T01:17:37.029Z,5.30
2022-11-28T01:17:46.437Z,5.30
2022-11-28T01:17:55.833Z,5.30
2022-11-28T01:18:05.232Z,5.40
2022-11-28T01:18:14.860Z,5.40
2022-11-28T01:18:24.280Z,5.40
2022-11-28T01:18:33.708Z,5.40
2022-11-28T01:18:43.122Z,5.30
2022-11-28T01:18:52.549Z,5.30
2022-11-28T01:19:01.982Z,5.30
2022-11-28T01:19:20.856Z,5.30
2022-11-28T01:19:30.282Z,5.30
2022-11-28T01:19:39.718Z,5.30
2022-11-28T01:19:49.114Z,5.30
2022-11-28T01:19:58.524Z,5.30
2022-11-28T01:20:07.944Z,5.30
2022-11-28T01:20:17.449Z,5.30
2022-11-28T01:20:26.871Z,5.30
2022-11-28T01:20:36.288Z,5.30
2022-11-28T01:20:45.714Z,5.30
2022-11-28T01:20:55.146Z,5.30
2022-11-28T01:21:04.544Z,5.30
2022-11-28T01:21:13.963Z,5.30
2022-11-28T01:21:23.371Z,5.30
2022-11-28T01:21:32.801Z,5.30
2022-11-28T01:21:42.228Z,5.30
2022-11-28T01:22:01.043Z,5.30
2022-11-28T01:22:10.464Z,5.30
2022-11-28T01:22:19.882Z,5.40
2022-11-28T01:22:29.299Z,5.30
2022-11-28T01:22:38.735Z,5.30
2022-11-28T01:22:48.141Z,5.40
2022-11-28T01:22:57.555Z,5.30
2022-11-28T01:23:07.002Z,5.30
2022-11-28T01:23:16.466Z,5.30
2022-11-28T01:23:25.867Z,5.30
2022-11-28T01:23:35.276Z,5.30
2022-11-28T01:23:44.830Z,5.30
2022-11-28T01:23:54.121Z,5.30
2022-11-28T01:24:03.536Z,5.30
2022-11-28T01:24:12.927Z,5.30
2022-11-28T01:24:22.399Z,5.30
2022-11-28T01:24:41.575Z,5.30
2022-11-28T01:24:50.778Z,5.30
2022-11-28T01:25:00.199Z,5.30
2022-11-28T01:25:09.593Z,5.30
2022-11-28T01:25:19.008Z,5.30
2022-11-28T01:25:28.442Z,5.30
2022-11-28T01:25:37.912Z,5.30
2022-11-28T01:25:47.401Z,5.30
2022-11-28T01:25:56.810Z,5.30
2022-11-28T01:26:06.229Z,5.30
2022-11-28T01:26:15.639Z,5.30
2022-11-28T01:26:25.057Z,5.30
2022-11-28T01:26:34.484Z,5.30
2022-11-28T01:26:43.891Z,5.30
2022-11-28T01:26:53.284Z,5.30
2022-11-28T01:27:02.712Z,5.30
2022-11-28T01:27:12.128Z,5.30
2022-11-28T01:27:30.932Z,5.30
2022-11-28T01:27:40.353Z,5.30
2022-11-28T01:27:49.730Z,5.30
2022-11-28T01:27:59.156Z,5.40
2022-11-28T01:28:08.558Z,5.30
2022-11-28T01:28:18.013Z,5.30
2022-11-28T01:28:27.423Z,5.30
2022-11-28T01:28:36.858Z,5.30
2022-11-28T01:28:46.266Z,5.30
2022-11-28T01:28:55.655Z,5.30
2022-11-28T01:29:05.108Z,5.30
2022-11-28T01:29:14.612Z,5.30
2022-11-28T01:29:24.016Z,5.30
2022-11-28T01:29:33.517Z,5.30
2022-11-28T01:29:42.909Z,5.30
2022-11-28T01:29:52.320Z,5.30
2022-11-28T01:30:11.125Z,5.30
2022-11-28T01:30:20.546Z,5.30
2022-11-28T01:30:29.970Z,5.30
2022-11-28T01:30:39.405Z,5.30
2022-11-28T01:30:48.806Z,5.30
2022-11-28T01:30:58.226Z,5.30
2022-11-28T01:31:07.742Z,5.30
2022-11-28T01:31:17.181Z,5.30
2022-11-28T01:31:26.674Z,5.30
2022-11-28T01:31:36.043Z,5.30
2022-11-28T01:31:45.485Z,5.30
2022-11-28T01:31:54.845Z,5.30
2022-11-28T01:32:04.202Z,5.30
2022-11-28T01:32:13.625Z,5.30
2022-11-28T01:32:23.049Z,5.30
2022-11-28T01:32:32.492Z,5.30
2022-11-28T01:32:41.915Z,5.30
2022-11-28T01:33:00.818Z,5.30
2022-11-28T01:33:10.230Z,5.30
2022-11-28T01:33:19.722Z,5.30
2022-11-28T01:33:29.156Z,5.30
2022-11-28T01:33:38.555Z,5.30
2022-11-28T01:33:48.012Z,5.20
2022-11-28T01:33:57.426Z,5.30
2022-11-28T01:34:06.853Z,5.30
2022-11-28T01:34:16.258Z,5.30
2022-11-28T01:34:25.691Z,5.30
2022-11-28T01:34:35.114Z,5.30
2022-11-28T01:34:44.807Z,5.30
2022-11-28T01:34:53.953Z,5.30
2022-11-28T01:35:03.410Z,5.30
2022-11-28T01:35:12.897Z,5.30
2022-11-28T01:35:22.399Z,5.30
2022-11-28T01:35:41.246Z,5.30
2022-11-28T01:35:50.648Z,5.30
2022-11-28T01:36:00.146Z,5.30
2022-11-28T01:36:09.556Z,5.20
2022-11-28T01:36:19.015Z,5.20
2022-11-28T01:36:28.480Z,5.20
2022-11-28T01:36:37.945Z,5.20
2022-11-28T01:36:47.336Z,5.20
2022-11-28T01:36:56.749Z,5.20
2022-11-28T01:37:06.160Z,5.20
2022-11-28T01:37:15.572Z,5.20
2022-11-28T01:37:25.079Z,5.20
2022-11-28T01:37:34.479Z,5.20
2022-11-28T01:37:43.889Z,5.20
2022-11-28T01:37:53.309Z,5.20
2022-11-28T01:38:02.718Z,5.20
2022-11-28T01:38:12.203Z,5.20
2022-11-28T01:38:31.073Z,5.20
2022-11-28T01:38:40.505Z,5.20
2022-11-28T01:38:50.093Z,5.20
2022-11-28T01:38:59.370Z,5.20
2022-11-28T01:39:08.794Z,5.20
2022-11-28T01:39:18.251Z,5.20
2022-11-28T01:39:27.679Z,5.20
2022-11-28T01:39:37.100Z,5.20
2022-11-28T01:39:46.542Z,5.20
2022-11-28T01:39:55.943Z,5.20
2022-11-28T01:40:05.363Z,5.20
2022-11-28T01:40:14.776Z,5.20
2022-11-28T01:40:24.194Z,5.20
2022-11-28T01:40:33.621Z,5.20
2022-11-28T01:40:43.041Z,5.20
2022-11-28T01:40:52.492Z,5.20
2022-11-28T01:41:11.318Z,5.20
2022-11-28T01:41:20.723Z,5.20
2022-11-28T01:41:30.141Z,5.20
2022-11-28T01:41:39.578Z,5.20
2022-11-28T01:41:48.982Z,5.20
2022-11-28T01:41:58.409Z,5.20
2022-11-28T01:42:07.825Z,5.20
2022-11-28T01:42:17.249Z,5.20
2022-11-28T01:42:26.667Z,5.20
2022-11-28T01:42:36.250Z,5.20
2022-11-28T01:42:45.668Z,5.20
2022-11-28T01:42:55.093Z,5.20
2022-11-28T01:43:04.506Z,5.20
2022-11-28T01:43:13.910Z,5.20
2022-11-28T01:43:23.367Z,5.20
2022-11-28T01:43:32.783Z,5.30
2022-11-28T01:43:42.178Z,5.30
2022-11-28T01:44:01.134Z,5.30
2022-11-28T01:44:10.563Z,5.40
2022-11-28T01:44:19.984Z,5.40
2022-11-28T01:44:29.398Z,5.40
2022-11-28T01:44:38.826Z,5.40
2022-11-28T01:44:48.231Z,5.50
2022-11-28T01:44:57.661Z,5.50
2022-11-28T01:45:07.054Z,5.50
2022-11-28T01:45:16.451Z,5.50
2022-11-28T01:45:25.854Z,5.60
2022-11-28T01:45:35.247Z,5.60
2022-11-28T01:45:44.647Z,5.60
2022-11-28T01:45:54.086Z,5.70
2022-11-28T01:46:03.513Z,5.70
2022-11-28T01:46:12.954Z,5.70
2022-11-28T01:46:22.400Z,5.80
2022-11-28T01:46:41.323Z,5.80
2022-11-28T01:46:50.761Z,5.80
2022-11-28T01:47:00.154Z,5.90
2022-11-28T01:47:09.529Z,5.90
2022-11-28T01:47:18.885Z,5.90
2022-11-28T01:47:28.309Z,5.90
2022-11-28T01:47:37.713Z,6.00
2022-11-28T01:47:47.135Z,6.00
2022-11-28T01:47:56.547Z,6.00
2022-11-28T01:48:05.925Z,6.00
2022-11-28T01:48:15.336Z,6.00
2022-11-28T01:48:24.818Z,6.00
2022-11-28T01:48:34.232Z,6.10
2022-11-28T01:48:43.636Z,6.10
2022-11-28T01:48:53.029Z,6.10
2022-11-28T01:49:02.454Z,6.10
2022-11-28T01:49:21.395Z,6.20
2022-11-28T01:49:30.824Z,6.20
2022-11-28T01:49:40.268Z,6.20
2022-11-28T01:49:49.670Z,6.20
2022-11-28T01:49:59.084Z,6.30
2022-11-28T01:50:08.498Z,6.30
2022-11-28T01:50:17.882Z,6.30
2022-11-28T01:50:27.298Z,6.30
2022-11-28T01:50:36.687Z,6.30
2022-11-28T01:50:46.073Z,6.30
2022-11-28T01:50:55.487Z,6.30
2022-11-28T01:51:04.921Z,6.30
2022-11-28T01:51:14.332Z,6.30
2022-11-28T01:51:23.816Z,6.30
2022-11-28T01:51:33.279Z,6.40
2022-11-28T01:51:42.734Z,6.40
2022-11-28T01:51:52.129Z,6.40
2022-11-28T01:52:10.922Z,6.50
2022-11-28T01:52:20.344Z,6.50
2022-11-28T01:52:29.740Z,6.50
2022-11-28T01:52:39.167Z,6.50
2022-11-28T01:52:48.588Z,6.50
2022-11-28T01:52:57.972Z,6.50
2022-11-28T01:53:07.383Z,6.60
2022-11-28T01:53:16.778Z,6.60
2022-11-28T01:53:26.188Z,6.60
2022-11-28T01:53:35.583Z,6.60
2022-11-28T01:53:44.975Z,6.60
2022-11-28T01:53:54.514Z,6.60
2022-11-28T01:54:03.807Z,6.60
2022-11-28T01:54:13.208Z,6.60
2022-11-28T01:54:22.627Z,6.60
2022-11-28T01:54:32.029Z,6.60
2022-11-28T01:54:50.961Z,6.60
2022-11-28T01:55:00.370Z,6.70
2022-11-28T01:55:09.754Z,6.60
2022-11-28T01:55:19.147Z,6.60
2022-11-28T01:55:28.563Z,6.60
2022-11-28T01:55:37.960Z,6.60
2022-11-28T01:55:47.382Z,6.60
2022-11-28T01:55:56.803Z,6.60
2022-11-28T01:56:06.231Z,6.70
2022-11-28T01:56:15.636Z,6.60
2022-11-28T01:56:25.053Z,6.60
2022-11-28T01:56:34.456Z,6.60
2022-11-28T01:56:43.861Z,6.60
2022-11-28T01:56:53.259Z,6.70
2022-11-28T01:57:02.668Z,6.70
2022-11-28T01:57:12.089Z,6.70
2022-11-28T01:57:30.932Z,6.70
2022-11-28T01:57:40.326Z,6.70
2022-11-28T01:57:49.733Z,6.70
2022-11-28T01:57:59.140Z,6.70
2022-11-28T01:58:08.545Z,6.70
2022-11-28T01:58:17.934Z,6.70
2022-11-28T01:58:27.338Z,6.70
2022-11-28T01:58:36.763Z,6.70
2022-11-28T01:58:46.138Z,6.70
2022-11-28T01:58:55.566Z,6.70
2022-11-28T01:59:04.981Z,6.70
2022-11-28T01:59:14.388Z,6.70
2022-11-28T01:59:23.795Z,6.70
2022-11-28T01:59:33.199Z,6.70
2022-11-28T01:59:42.617Z,6.70
2022-11-28T01:59:52.013Z,6.70
2022-11-28T02:00:10.829Z,6.80
2022-11-28T02:00:20.259Z,6.80
2022-11-28T02:00:29.665Z,6.80
2022-11-28T02:00:39.180Z,6.80
2022-11-28T02:00:48.526Z,6.80
2022-11-28T02:00:57.927Z,6.80
2022-11-28T02:01:07.361Z,6.80
2022-11-28T02:01:16.789Z,6.80
2022-11-28T02:01:26.078Z,6.80
2022-11-28T02:01:35.439Z,6.80
2022-11-28T02:01:44.939Z,6.80
2022-11-28T02:01:54.288Z,6.80
2022-11-28T02:02:03.771Z,6.80
2022-11-28T02:02:13.227Z,6.80
2022-11-28T02:02:22.652Z,6.80
2022-11-28T02:02:32.028Z,6.80
2022-11-28T02:02:50.796Z,6.80
2022-11-28T02:03:00.183Z,6.80
2022-11-28T02:03:09.567Z,6.80
2022-11-28T02:03:18.962Z,6.80
2022-11-28T02:03:28.379Z,6.80
2022-11-28T02:03:37.791Z,6.80
2022-11-28T02:03:47.201Z,6.80
2022-11-28T02:03:56.603Z,6.80
2022-11-28T02:04:06.025Z,6.80
2022-11-28T02:04:15.445Z,6.80
2022-11-28T02:04:24.898Z,6.80
2022-11-28T02:04:34.296Z,6.80
2022-11-28T02:04:44.085Z,6.80
2022-11-28T02:04:53.142Z,6.80
2022-11-28T02:05:02.530Z,6.80
2022-11-28T02:05:11.911Z,6.80
2022-11-28T02:05:30.751Z,6.80
2022-11-28T02:05:40.162Z,6.80
2022-11-28T02:05:49.565Z,6.90
2022-11-28T02:05:58.972Z,6.80
2022-11-28T02:06:08.371Z,6.80
2022-11-28T02:06:17.780Z,6.80
2022-11-28T02:06:27.201Z,6.80
2022-11-28T02:06:36.602Z,6.80
2022-11-28T02:06:46.046Z,6.80
2022-11-28T02:06:55.468Z,6.80
2022-11-28T02:07:04.865Z,6.80
2022-11-28T02:07:14.365Z,6.80
2022-11-28T02:07:23.738Z,6.80
2022-11-28T02:07:33.118Z,6.80
2022-11-28T02:07:42.578Z,6.80
2022-11-28T02:08:01.452Z,6.80
2022-11-28T02:08:10.798Z,6.80
2022-11-28T02:08:20.215Z,6.80
2022-11-28T02:08:29.652Z,6.80
2022-11-28T02:08:39.029Z,6.90
2022-11-28T02:08:48.423Z,6.80
2022-11-28T02:08:57.931Z,6.90
2022-11-28T02:09:07.225Z,6.90
2022-11-28T02:09:16.650Z,6.80
2022-11-28T02:09:26.067Z,6.80
2022-11-28T02:09:35.447Z,6.80
2022-11-28T02:09:44.834Z,6.80
2022-11-28T02:09:54.234Z,6.80
2022-11-28T02:10:03.649Z,6.80
2022-11-28T02:10:13.036Z,6.80
2022-11-28T02:10:22.456Z,6.80
2022-11-28T02:10:41.342Z,6.90
2022-11-28T02:10:50.710Z,6.80
2022-11-28T02:11:00.101Z,6.80
2022-11-28T02:11:09.493Z,6.80
2022-11-28T02:11:18.897Z,6.80
2022-11-28T02:11:28.293Z,6.80
2022-11-28T02:11:37.687Z,6.80
2022-11-28T02:11:47.089Z,6.90
2022-11-28T02:11:56.481Z,6.80
2022-11-28T02:12:05.923Z,6.90
2022-11-28T02:12:15.309Z,6.90
2022-11-28T02:12:24.698Z,6.90
2022-11-28T02:12:34.090Z,6.80
2022-11-28T02:12:43.527Z,6.90
2022-11-28T02:12:52.984Z,6.90
2022-11-28T02:13:02.384Z,6.90